createdAt,value
2019-02-02T00:01:11.797Z,93.20
2019-02-02T00:04:17.538Z,97.57
2019-02-02T00:07:23.759Z,100.33
2019-02-02T00:10:28.055Z,106.03
2019-02-02T00:13:32.340Z,103.67
2019-02-02T00:16:36.780Z,98.93
2019-02-02T00:19:41.279Z,94.30
2019-02-02T00:22:47.641Z,97.23
2019-02-02T00:25:54.735Z,103.13
2019-02-02T00:29:02.027Z,98.70
2019-02-02T00:32:06.319Z,110.80
2019-02-02T00:35:11.158Z,93.23
2019-02-02T00:38:15.439Z,100.77
2019-02-02T00:41:19.721Z,94.93
2019-02-02T00:44:27.402Z,107.37
2019-02-02T00:47:31.694Z,104.40
2019-02-02T00:50:36.113Z,97.70
2019-02-02T00:53:40.389Z,99.43
2019-02-02T00:56:44.842Z,104.50
2019-02-02T00:59:49.183Z,98.07
2019-02-02T01:02:55.471Z,105.83
2019-02-02T01:05:59.489Z,102.23
2019-02-02T01:09:06.870Z,104.10
2019-02-02T01:12:11.154Z,105.53
2019-02-02T01:15:16.444Z,100.67
2019-02-02T01:18:20.786Z,103.80
2019-02-02T01:21:25.075Z,111.63
2019-02-02T01:24:29.450Z,105.70
2019-02-02T01:27:35.555Z,104.03
2019-02-02T01:30:40.017Z,95.20
2019-02-02T01:33:44.337Z,111.30
2019-02-02T01:36:48.672Z,100.43
2019-02-02T01:39:53.075Z,99.10
2019-02-02T01:42:57.608Z,98.03
2019-02-02T01:46:01.962Z,95.53
2019-02-02T01:49:06.429Z,99.57
2019-02-02T01:52:12.416Z,93.83
2019-02-02T01:55:17.215Z,99.60
2019-02-02T01:58:21.497Z,100.20
2019-02-02T02:01:28.107Z,103.90
2019-02-02T02:04:32.713Z,95.73
2019-02-02T02:07:37.001Z,99.87
2019-02-02T02:10:41.287Z,102.43
2019-02-02T02:13:45.792Z,93.13
2019-02-02T02:16:50.110Z,101.13
2019-02-02T02:19:54.632Z,92.70
2019-02-02T02:22:59.132Z,99.20
2019-02-02T02:26:03.574Z,106.07
2019-02-02T02:29:08.239Z,101.90
2019-02-02T02:32:12.535Z,103.10
2019-02-02T02:35:17.095Z,99.60
2019-02-02T02:38:21.439Z,107.07
2019-02-02T02:41:25.723Z,97.90
2019-02-02T02:44:30.003Z,102.93
2019-02-02T02:47:34.335Z,110.23
2019-02-02T02:50:38.621Z,100.77
2019-02-02T02:53:43.015Z,106.10
2019-02-02T02:56:47.307Z,104.50
2019-02-02T02:59:51.621Z,103.70
2019-02-02T03:02:55.904Z,104.63
2019-02-02T03:06:00.246Z,102.07
2019-02-02T03:09:07.455Z,97.90
2019-02-02T03:12:11.885Z,107.83
2019-02-02T03:15:16.987Z,107.33
2019-02-02T03:18:21.375Z,102.40
2019-02-02T03:21:25.812Z,99.07
2019-02-02T03:24:30.107Z,101.97
2019-02-02T03:27:34.383Z,99.10
2019-02-02T03:30:38.698Z,102.80
2019-02-02T03:33:43.160Z,94.00
2019-02-02T03:36:47.437Z,96.40
2019-02-02T03:39:53.472Z,96.47
2019-02-02T03:42:57.708Z,100.17
2019-02-02T03:46:01.989Z,101.97
2019-02-02T03:49:06.275Z,102.47
2019-02-02T03:52:10.576Z,96.83
2019-02-02T03:55:15.423Z,100.93
2019-02-02T03:58:34.010Z,94.00
2019-02-02T04:01:25.826Z,96.40
2019-02-02T04:04:30.099Z,95.70
2019-02-02T04:07:34.377Z,98.30
2019-02-02T04:10:38.659Z,102.23
2019-02-02T04:13:42.930Z,95.17
2019-02-02T04:16:47.236Z,95.30
2019-02-02T04:19:51.555Z,97.37
2019-02-02T04:22:55.860Z,100.23
2019-02-02T04:26:00.164Z,106.53
2019-02-02T04:29:04.754Z,99.83
2019-02-02T04:32:10.473Z,105.80
2019-02-02T04:35:15.079Z,102.37
2019-02-02T04:38:19.383Z,98.97
2019-02-02T04:41:23.758Z,109.43
2019-02-02T04:44:28.022Z,103.37
2019-02-02T04:47:32.369Z,106.03
2019-02-02T04:50:39.133Z,106.87
2019-02-02T04:53:43.418Z,108.60
2019-02-02T04:56:47.927Z,105.73
2019-02-02T04:59:52.203Z,104.97
2019-02-02T05:02:56.670Z,102.07
2019-02-02T05:06:00.944Z,97.90
2019-02-02T05:09:08.145Z,104.73
2019-02-02T05:12:12.452Z,101.40
2019-02-02T05:15:16.989Z,103.97
2019-02-02T05:18:21.290Z,104.90
2019-02-02T05:21:25.794Z,105.60
2019-02-02T05:24:30.124Z,98.70
2019-02-02T05:27:34.583Z,96.50
2019-02-02T05:30:38.901Z,106.27
2019-02-02T05:33:43.201Z,91.87
2019-02-02T05:36:47.656Z,107.17
2019-02-02T05:39:52.067Z,112.40
2019-02-02T05:42:56.376Z,100.63
2019-02-02T05:46:00.689Z,102.43
2019-02-02T05:49:05.049Z,108.17
2019-02-02T05:52:09.323Z,105.67
2019-02-02T05:55:17.524Z,107.37
2019-02-02T05:58:24.242Z,117.37
2019-02-02T06:01:30.065Z,109.83
2019-02-02T06:04:37.020Z,108.60
2019-02-02T06:07:41.647Z,108.40
2019-02-02T06:10:46.071Z,115.40
2019-02-02T06:13:50.355Z,112.73
2019-02-02T06:16:54.657Z,110.50
2019-02-02T06:19:58.953Z,105.73
2019-02-02T06:23:05.713Z,120.03
2019-02-02T06:26:11.460Z,108.67
2019-02-02T06:29:15.860Z,108.33
2019-02-02T06:32:20.243Z,108.93
2019-02-02T06:35:24.543Z,113.23
2019-02-02T06:38:28.824Z,117.50
2019-02-02T06:41:33.101Z,107.13
2019-02-02T06:44:37.424Z,117.07
2019-02-02T06:47:42.008Z,123.30
2019-02-02T06:50:46.313Z,125.57
2019-02-02T06:53:53.468Z,117.63
2019-02-02T06:56:57.815Z,122.03
2019-02-02T07:00:15.727Z,125.10
2019-02-02T07:03:13.579Z,114.50
2019-02-02T07:06:18.146Z,116.40
2019-02-02T07:09:22.439Z,122.47
2019-02-02T07:12:26.734Z,112.47
2019-02-02T07:15:31.152Z,117.97
2019-02-02T07:18:35.666Z,118.53
2019-02-02T07:21:39.961Z,113.80
2019-02-02T07:24:44.387Z,114.70
2019-02-02T07:27:48.663Z,108.80
2019-02-02T07:30:52.939Z,116.03
2019-02-02T07:33:57.229Z,110.87
2019-02-02T07:37:01.536Z,107.33
2019-02-02T07:40:07.794Z,107.87
2019-02-02T07:43:12.076Z,118.03
2019-02-02T07:46:16.365Z,107.83
2019-02-02T07:49:20.642Z,105.40
2019-02-02T07:52:24.923Z,111.67
2019-02-02T07:55:30.413Z,118.07
2019-02-02T07:58:34.711Z,106.97
2019-02-02T08:01:39.016Z,110.23
2019-02-02T08:04:43.319Z,111.43
2019-02-02T08:07:47.639Z,119.03
2019-02-02T08:10:54.966Z,115.33
2019-02-02T08:13:57.949Z,112.97
2019-02-02T08:17:02.358Z,113.17
2019-02-02T08:20:10.548Z,117.63
2019-02-02T08:23:14.917Z,107.60
2019-02-02T08:26:19.207Z,112.13
2019-02-02T08:29:23.670Z,114.40
2019-02-02T08:32:27.975Z,111.87
2019-02-02T08:35:32.459Z,114.10
2019-02-02T08:38:36.826Z,110.73
2019-02-02T08:41:41.153Z,114.27
2019-02-02T08:44:45.472Z,114.87
2019-02-02T08:47:49.857Z,112.50
2019-02-02T08:50:54.153Z,112.63
2019-02-02T08:53:58.448Z,118.10
2019-02-02T08:57:02.827Z,119.10
2019-02-02T09:00:10.060Z,111.60
2019-02-02T09:03:15.866Z,115.97
2019-02-02T09:06:20.322Z,116.53
2019-02-02T09:09:24.625Z,120.57
2019-02-02T09:12:28.923Z,112.70
2019-02-02T09:15:33.215Z,113.27
2019-02-02T09:18:37.703Z,120.77
2019-02-02T09:21:41.977Z,118.10
2019-02-02T09:24:46.252Z,115.97
2019-02-02T09:27:50.550Z,113.43
2019-02-02T09:30:54.928Z,113.47
2019-02-02T09:33:59.226Z,114.30
2019-02-02T09:37:03.629Z,118.90
2019-02-02T09:40:09.113Z,110.00
2019-02-02T09:43:16.163Z,118.50
2019-02-02T09:46:20.620Z,112.97
2019-02-02T09:49:24.931Z,112.57
2019-02-02T09:52:29.457Z,113.97
2019-02-02T09:55:33.750Z,115.37
2019-02-02T09:58:38.048Z,116.03
2019-02-02T10:01:42.538Z,119.80
2019-02-02T10:04:46.829Z,107.63
2019-02-02T10:07:51.110Z,120.40
2019-02-02T10:10:55.576Z,111.57
2019-02-02T10:13:59.893Z,109.63
2019-02-02T10:17:04.505Z,117.93
2019-02-02T10:20:10.927Z,115.30
2019-02-02T10:23:15.493Z,121.33
2019-02-02T10:26:19.906Z,120.83
2019-02-02T10:29:24.245Z,110.47
2019-02-02T10:32:28.531Z,114.37
2019-02-02T10:35:33.058Z,119.53
2019-02-02T10:38:37.455Z,128.30
2019-02-02T10:41:41.883Z,130.70
2019-02-02T10:44:47.447Z,124.67
2019-02-02T10:47:51.857Z,120.77
2019-02-02T10:50:56.358Z,112.77
2019-02-02T10:54:00.680Z,105.83
2019-02-02T10:57:05.082Z,106.73
2019-02-02T11:00:16.282Z,110.00
2019-02-02T11:03:20.573Z,108.47
2019-02-02T11:06:25.038Z,110.00
2019-02-02T11:09:30.793Z,107.37
2019-02-02T11:12:35.733Z,118.00
2019-02-02T11:15:40.348Z,110.57
2019-02-02T11:18:46.389Z,108.10
2019-02-02T11:21:52.617Z,110.87
2019-02-02T11:24:57.140Z,105.53
2019-02-02T11:28:01.706Z,106.03
2019-02-02T11:31:06.798Z,110.67
2019-02-02T11:34:11.096Z,105.97
2019-02-02T11:37:16.789Z,110.50
2019-02-02T11:40:24.788Z,111.53
2019-02-02T11:43:33.780Z,108.33
2019-02-02T11:46:41.678Z,109.60
2019-02-02T11:49:55.764Z,107.23
2019-02-02T11:53:00.326Z,105.00
2019-02-02T11:56:05.111Z,104.43
2019-02-02T11:59:09.620Z,104.63
2019-02-02T12:02:14.946Z,101.23
2019-02-02T12:05:19.595Z,94.43
2019-02-02T12:08:24.034Z,103.43
2019-02-02T12:11:28.457Z,100.33
2019-02-02T12:14:35.761Z,92.07
2019-02-02T12:17:40.223Z,91.33
2019-02-02T12:20:45.602Z,89.37
2019-02-02T12:23:49.878Z,83.63
2019-02-02T12:26:54.157Z,91.50
2019-02-02T12:29:58.436Z,86.43
2019-02-02T12:33:03.670Z,86.97
2019-02-02T12:36:08.099Z,86.13
2019-02-02T12:39:12.594Z,91.17
2019-02-02T12:42:16.919Z,85.80
2019-02-02T12:45:26.848Z,88.43
2019-02-02T12:48:32.393Z,93.40
2019-02-02T12:51:36.899Z,91.90
2019-02-02T12:54:41.444Z,87.90
2019-02-02T12:57:45.850Z,90.10
2019-02-02T13:00:50.367Z,83.87
2019-02-02T13:04:01.864Z,95.53
2019-02-02T13:07:01.223Z,95.43
2019-02-02T13:10:07.043Z,93.83
2019-02-02T13:13:11.503Z,90.90
2019-02-02T13:16:15.796Z,94.03
2019-02-02T13:19:20.140Z,88.17
2019-02-02T13:22:24.518Z,89.07
2019-02-02T13:25:29.043Z,88.83
2019-02-02T13:28:33.362Z,86.23
2019-02-02T13:31:37.647Z,98.53
2019-02-02T13:34:42.087Z,97.53
2019-02-02T13:37:46.588Z,89.50
2019-02-02T13:40:50.938Z,96.43
2019-02-02T13:43:55.299Z,97.30
2019-02-02T13:46:59.622Z,96.50
2019-02-02T13:50:04.620Z,99.73
2019-02-02T13:53:10.004Z,91.93
2019-02-02T13:56:14.397Z,98.17
2019-02-02T13:59:18.761Z,98.63
2019-02-02T14:02:23.050Z,96.03
2019-02-02T14:05:27.507Z,93.30
2019-02-02T14:08:31.938Z,97.07
2019-02-02T14:11:36.429Z,88.57
2019-02-02T14:14:40.749Z,93.83
2019-02-02T14:17:48.267Z,86.60
2019-02-02T14:20:52.683Z,87.27
2019-02-02T14:23:57.206Z,88.77
2019-02-02T14:27:01.519Z,84.00
2019-02-02T14:30:09.233Z,89.67
2019-02-02T14:33:14.582Z,82.67
2019-02-02T14:36:19.093Z,84.47
2019-02-02T14:39:23.406Z,87.47
2019-02-02T14:42:27.681Z,79.87
2019-02-02T14:45:32.004Z,81.10
2019-02-02T14:48:36.367Z,89.13
2019-02-02T14:51:40.842Z,79.67
2019-02-02T14:54:45.369Z,77.33
2019-02-02T14:57:49.715Z,81.60
2019-02-02T15:00:54.186Z,75.60
2019-02-02T15:03:58.519Z,80.07
2019-02-02T15:07:02.942Z,72.50
2019-02-02T15:10:08.397Z,82.33
2019-02-02T15:13:12.811Z,76.27
2019-02-02T15:16:17.127Z,75.17
2019-02-02T15:19:21.403Z,77.83
2019-02-02T15:22:25.706Z,69.93
2019-02-02T15:25:30.082Z,70.03
2019-02-02T15:28:34.379Z,69.80
2019-02-02T15:31:38.681Z,68.43
2019-02-02T15:34:42.989Z,72.80
2019-02-02T15:37:50.781Z,64.70
2019-02-02T15:40:59.228Z,63.40
2019-02-02T15:44:01.311Z,64.73
2019-02-02T15:47:05.774Z,63.43
2019-02-02T15:50:12.292Z,74.73
2019-02-02T15:53:19.647Z,79.87
2019-02-02T15:56:23.960Z,73.90
2019-02-02T15:59:29.819Z,75.87
2019-02-02T16:02:34.090Z,82.23
2019-02-02T16:05:38.589Z,78.13
2019-02-02T16:08:42.971Z,72.40
2019-02-02T16:11:47.307Z,78.00
2019-02-02T16:14:51.715Z,71.73
2019-02-02T16:17:59.033Z,80.00
2019-02-02T16:21:03.364Z,72.40
2019-02-02T16:24:07.777Z,78.53
2019-02-02T16:27:12.049Z,73.50
2019-02-02T16:30:19.033Z,74.43
2019-02-02T16:33:23.342Z,78.03
2019-02-02T16:36:27.652Z,76.97
2019-02-02T16:39:32.033Z,81.10
2019-02-02T16:42:40.765Z,81.60
2019-02-02T16:45:45.163Z,77.17
2019-02-02T16:48:49.551Z,77.83
2019-02-02T16:51:53.939Z,74.80
2019-02-02T16:54:58.253Z,82.87
2019-02-02T16:58:02.563Z,86.50
2019-02-02T17:01:06.999Z,78.70
2019-02-02T17:04:15.791Z,74.57
2019-02-02T17:07:18.043Z,73.60
2019-02-02T17:10:24.743Z,66.33
2019-02-02T17:13:29.016Z,72.90
2019-02-02T17:16:34.871Z,68.97
2019-02-02T17:19:39.161Z,71.50
2019-02-02T17:22:43.994Z,75.00
2019-02-02T17:25:48.496Z,75.07
2019-02-02T17:28:52.980Z,77.10
2019-02-02T17:31:58.630Z,73.23
2019-02-02T17:35:04.745Z,82.43
2019-02-02T17:38:09.243Z,83.10
2019-02-02T17:41:13.547Z,76.73
2019-02-02T17:44:17.893Z,74.73
2019-02-02T17:47:22.292Z,72.03
2019-02-02T17:50:26.818Z,72.73
2019-02-02T17:53:31.115Z,74.27
2019-02-02T17:56:35.481Z,69.70
2019-02-02T17:59:42.733Z,68.13
2019-02-02T18:02:47.054Z,62.40
2019-02-02T18:05:51.403Z,64.80
2019-02-02T18:08:55.727Z,69.60
2019-02-02T18:12:00.078Z,69.27
2019-02-02T18:15:05.619Z,67.47
2019-02-02T18:18:10.256Z,64.40
2019-02-02T18:21:14.871Z,63.77
2019-02-02T18:24:19.199Z,62.77
2019-02-02T18:27:23.631Z,67.10
2019-02-02T18:30:28.156Z,56.60
2019-02-02T18:33:32.578Z,64.93
2019-02-02T18:36:36.977Z,63.17
2019-02-02T18:39:41.296Z,65.23
2019-02-02T18:42:45.796Z,71.53
2019-02-02T18:45:50.248Z,66.17
2019-02-02T18:48:54.687Z,67.57
2019-02-02T18:51:58.979Z,62.30
2019-02-02T18:55:03.343Z,70.00
2019-02-02T18:58:08.080Z,66.67
2019-02-02T19:01:12.459Z,66.73
2019-02-02T19:04:16.912Z,73.17
2019-02-02T19:07:21.351Z,68.33
2019-02-02T19:10:28.720Z,72.77
2019-02-02T19:13:33.005Z,69.90
2019-02-02T19:16:37.340Z,72.53
2019-02-02T19:19:41.631Z,76.97
2019-02-02T19:22:45.932Z,65.10
2019-02-02T19:25:50.246Z,67.67
2019-02-02T19:28:54.649Z,65.73
2019-02-02T19:31:59.463Z,67.70
2019-02-02T19:35:15.259Z,72.53
2019-02-02T19:38:10.087Z,76.40
2019-02-02T19:41:14.434Z,61.07
2019-02-02T19:44:21.863Z,64.53
2019-02-02T19:47:26.198Z,72.23
2019-02-02T19:50:30.492Z,67.40
2019-02-02T19:53:34.880Z,61.37
2019-02-02T19:56:39.293Z,63.57
2019-02-02T19:59:43.667Z,62.73
2019-02-02T20:02:47.987Z,62.70
2019-02-02T20:05:53.967Z,66.07
2019-02-02T20:08:58.268Z,67.20
2019-02-02T20:12:02.591Z,54.23
2019-02-02T20:15:09.136Z,64.00
2019-02-02T20:18:15.261Z,63.67
2019-02-02T20:21:19.618Z,59.53
2019-02-02T20:24:23.976Z,60.87
2019-02-02T20:27:28.312Z,64.57
2019-02-02T20:30:33.163Z,59.57
2019-02-02T20:33:37.542Z,61.57
2019-02-02T20:36:42.108Z,61.53
2019-02-02T20:39:46.550Z,56.87
2019-02-02T20:42:51.038Z,59.13
2019-02-02T20:45:55.490Z,61.47
2019-02-02T20:49:01.170Z,54.80
2019-02-02T20:52:05.838Z,62.07
2019-02-02T20:55:12.988Z,58.30
2019-02-02T20:58:17.399Z,61.50
2019-02-02T21:01:21.702Z,52.97
2019-02-02T21:04:27.377Z,53.30
2019-02-02T21:07:32.292Z,52.17
2019-02-02T21:10:36.616Z,52.07
2019-02-02T21:13:40.932Z,55.63
2019-02-02T21:16:45.359Z,57.60
2019-02-02T21:19:49.685Z,55.17
2019-02-02T21:22:54.344Z,52.93
2019-02-02T21:25:58.674Z,51.40
2019-02-02T21:29:03.031Z,48.73
2019-02-02T21:32:07.490Z,50.33
2019-02-02T21:35:12.039Z,49.87
2019-02-02T21:38:16.743Z,48.87
2019-02-02T21:41:21.166Z,47.87
2019-02-02T21:44:25.661Z,44.23
2019-02-02T21:47:32.062Z,40.67
2019-02-02T21:50:36.433Z,44.30
2019-02-02T21:53:40.846Z,43.63
2019-02-02T21:56:45.162Z,43.30
2019-02-02T21:59:52.532Z,46.10
2019-02-02T22:02:59.185Z,42.37
2019-02-02T22:06:14.860Z,40.77
2019-02-02T22:09:09.817Z,48.97
2019-02-02T22:12:14.130Z,42.57
2019-02-02T22:15:24.843Z,44.80
2019-02-02T22:18:29.618Z,46.60
2019-02-02T22:21:34.210Z,38.60
2019-02-02T22:24:38.647Z,41.00
2019-02-02T22:27:43.070Z,40.40
2019-02-02T22:30:47.410Z,42.37
2019-02-02T22:33:51.783Z,40.73
2019-02-02T22:36:56.089Z,50.53
2019-02-02T22:40:00.411Z,46.83
2019-02-02T22:43:07.362Z,47.83
2019-02-02T22:46:11.756Z,44.07
2019-02-02T22:49:16.381Z,45.27
2019-02-02T22:52:23.844Z,44.50
2019-02-02T22:55:28.230Z,48.97
2019-02-02T22:58:32.569Z,51.57
2019-02-02T23:01:43.033Z,51.27
2019-02-02T23:05:31.289Z,47.03
2019-02-02T23:09:05.193Z,48.50
2019-02-02T23:12:24.659Z,53.07
2019-02-02T23:16:13.287Z,49.13
2019-02-02T23:19:17.955Z,51.17
2019-02-02T23:22:22.267Z,51.63
2019-02-02T23:25:26.623Z,48.43
2019-02-02T23:28:30.934Z,49.03
2019-02-02T23:31:35.399Z,52.73
2019-02-02T23:34:39.855Z,46.17
2019-02-02T23:37:44.200Z,50.37
2019-02-02T23:40:48.509Z,53.50
2019-02-02T23:43:52.842Z,45.23
2019-02-02T23:46:57.167Z,47.03
2019-02-02T23:50:01.499Z,52.47
2019-02-02T23:53:05.881Z,49.77
2019-02-02T23:56:10.190Z,55.30
2019-02-02T23:59:14.581Z,53.50
